RYR9442 LIRF-LOWW
Flight info
| Callsign | RYR9442 |
|---|---|
| Flight time | N/A |
| Altitude | 36000 |
| Route | SOVAN DCT AMTEL DCT GAVRA/N0453F370 DCT LAPNA LAPNA2W |
| Aircraft | A320/M-SDE3FGHIRWY/LB1 |
Departure
| Time | 2026-05-01 09:30 |
|---|---|
| Airport | Rome–Fiumicino Leonardo da Vinci International Airport (LIRF) |
Arrival
| Time | N/A |
|---|---|
| Airport | Vienna International Airport (LOWW) |
| Time | Latitude | Longitude | Altitude | Speed | Heading |
|---|---|---|---|---|---|
| 2026-05-01 09:12 | 41.79756 | 12.25501 | 14 ft | 0 kts | 115° |
| 2026-05-01 09:21 | 41.79757 | 12.25500 | 14 ft | 1 kts | 115° |
| 2026-05-01 09:22 | 41.79769 | 12.25440 | 14 ft | 4 kts | 56° |
| 2026-05-01 09:22 | 41.79749 | 12.25419 | 14 ft | 0 kts | 25° |
| 2026-05-01 09:23 | 41.79749 | 12.25418 | 14 ft | 0 kts | 25° |
| 2026-05-01 09:25 | 41.79761 | 12.25426 | 14 ft | 4 kts | 25° |
| 2026-05-01 09:25 | 41.79879 | 12.25500 | 14 ft | 14 kts | 25° |
| 2026-05-01 09:26 | 41.79958 | 12.25549 | 16 ft | 12 kts | 25° |
| 2026-05-01 09:26 | 41.79962 | 12.25719 | 15 ft | 17 kts | 115° |
| 2026-05-01 09:26 | 41.79925 | 12.25843 | 16 ft | 11 kts | 87° |
| 2026-05-01 09:27 | 41.80126 | 12.25980 | 14 ft | 23 kts | 25° |
| 2026-05-01 09:27 | 41.80279 | 12.26073 | 14 ft | 25 kts | 24° |
| 2026-05-01 09:27 | 41.80424 | 12.26162 | 17 ft | 19 kts | 22° |
| 2026-05-01 09:28 | 41.80521 | 12.26169 | 18 ft | 6 kts | 19° |
| 2026-05-01 09:28 | 41.80577 | 12.26200 | 16 ft | 12 kts | 16° |
| 2026-05-01 09:28 | 41.80675 | 12.26190 | 17 ft | 17 kts | 346° |
| 2026-05-01 09:28 | 41.80733 | 12.26115 | 19 ft | 11 kts | 289° |
| 2026-05-01 09:29 | 41.80653 | 12.25822 | 17 ft | 73 kts | 250° |
| 2026-05-01 09:29 | 41.80378 | 12.24820 | 16 ft | 152 kts | 250° |
| 2026-05-01 09:30 | 41.79515 | 12.21752 | 1269 ft | 188 kts | 253° |
| 2026-05-01 09:30 | 41.79179 | 12.20040 | 2070 ft | 190 kts | 272° |
| 2026-05-01 09:30 | 41.80439 | 12.16862 | 2998 ft | 208 kts | 310° |
| 2026-05-01 09:31 | 41.81352 | 12.15334 | 3604 ft | 213 kts | 308° |
| 2026-05-01 09:31 | 41.82407 | 12.13899 | 4135 ft | 220 kts | 329° |
| 2026-05-01 09:31 | 41.85363 | 12.12804 | 5627 ft | 223 kts | 349° |
| 2026-05-01 09:32 | 41.86910 | 12.12394 | 6277 ft | 233 kts | 350° |
| 2026-05-01 09:32 | 41.90204 | 12.11541 | 7801 ft | 240 kts | 350° |
| 2026-05-01 09:32 | 41.91866 | 12.11087 | 8450 ft | 253 kts | 350° |
| 2026-05-01 09:33 | 41.93673 | 12.10601 | 8837 ft | 275 kts | 350° |
| 2026-05-01 09:33 | 41.95578 | 12.10093 | 9547 ft | 282 kts | 350° |
| 2026-05-01 09:33 | 41.99522 | 12.09038 | 10740 ft | 306 kts | 350° |
| 2026-05-01 09:34 | 42.01688 | 12.08453 | 10923 ft | 329 kts | 350° |
| 2026-05-01 09:34 | 42.03982 | 12.07827 | 11325 ft | 342 kts | 350° |
| 2026-05-01 09:34 | 42.08682 | 12.06539 | 12749 ft | 346 kts | 350° |
| 2026-05-01 09:35 | 42.11010 | 12.05904 | 13479 ft | 347 kts | 350° |
| 2026-05-01 09:35 | 42.15763 | 12.04613 | 14897 ft | 350 kts | 349° |
| 2026-05-01 09:35 | 42.18154 | 12.03963 | 15556 ft | 351 kts | 349° |
| 2026-05-01 09:36 | 42.20561 | 12.03350 | 16197 ft | 353 kts | 351° |
| 2026-05-01 09:36 | 42.22987 | 12.02794 | 16836 ft | 354 kts | 351° |
| 2026-05-01 09:36 | 42.25420 | 12.02265 | 17479 ft | 355 kts | 352° |
| 2026-05-01 09:36 | 42.27866 | 12.01741 | 18119 ft | 357 kts | 351° |
| 2026-05-01 09:37 | 42.30322 | 12.01209 | 18749 ft | 358 kts | 351° |
| 2026-05-01 09:37 | 42.35278 | 12.00110 | 19957 ft | 364 kts | 351° |
| 2026-05-01 09:37 | 42.37780 | 11.99545 | 20543 ft | 366 kts | 351° |
| 2026-05-01 09:38 | 42.42834 | 11.98403 | 21640 ft | 370 kts | 351° |
| 2026-05-01 09:38 | 42.45380 | 11.97831 | 22113 ft | 372 kts | 351° |
| 2026-05-01 09:38 | 42.47941 | 11.97252 | 22580 ft | 374 kts | 351° |
| 2026-05-01 09:39 | 42.53106 | 11.96076 | 23446 ft | 379 kts | 351° |
| 2026-05-01 09:39 | 42.55714 | 11.95485 | 23874 ft | 381 kts | 351° |
| 2026-05-01 09:39 | 42.58333 | 11.94890 | 24267 ft | 383 kts | 351° |
| 2026-05-01 09:40 | 42.60940 | 11.94301 | 24626 ft | 386 kts | 351° |
| 2026-05-01 09:40 | 42.66279 | 11.93093 | 25317 ft | 392 kts | 351° |
| 2026-05-01 09:40 | 42.68981 | 11.92482 | 25649 ft | 395 kts | 351° |
| 2026-05-01 09:41 | 42.71698 | 11.91865 | 25979 ft | 398 kts | 351° |
| 2026-05-01 09:41 | 42.77198 | 11.90607 | 26656 ft | 403 kts | 351° |
| 2026-05-01 09:41 | 42.79972 | 11.89969 | 26963 ft | 406 kts | 351° |
| 2026-05-01 09:42 | 42.82743 | 11.89162 | 27276 ft | 410 kts | 344° |
| 2026-05-01 09:42 | 42.85415 | 11.87751 | 27572 ft | 414 kts | 335° |
| 2026-05-01 09:42 | 42.90536 | 11.84016 | 28153 ft | 420 kts | 334° |
| 2026-05-01 09:43 | 42.95704 | 11.80228 | 28872 ft | 421 kts | 334° |
| 2026-05-01 09:43 | 42.98287 | 11.78339 | 29273 ft | 421 kts | 334° |
| 2026-05-01 09:43 | 43.00868 | 11.76450 | 29678 ft | 421 kts | 334° |
| 2026-05-01 09:44 | 43.06031 | 11.72673 | 30463 ft | 421 kts | 335° |
| 2026-05-01 09:44 | 43.08607 | 11.70780 | 30868 ft | 420 kts | 334° |
| 2026-05-01 09:44 | 43.11178 | 11.68882 | 31264 ft | 420 kts | 335° |
| 2026-05-01 09:45 | 43.13745 | 11.66983 | 31661 ft | 419 kts | 335° |
| 2026-05-01 09:45 | 43.18941 | 11.63421 | 32503 ft | 414 kts | 343° |
| 2026-05-01 09:45 | 43.21718 | 11.62494 | 32913 ft | 410 kts | 354° |
| 2026-05-01 09:46 | 43.24552 | 11.62324 | 33296 ft | 407 kts | 4° |
| 2026-05-01 09:46 | 43.27309 | 11.62885 | 33674 ft | 406 kts | 14° |
| 2026-05-01 09:46 | 43.30026 | 11.63926 | 34035 ft | 406 kts | 15° |
| 2026-05-01 09:46 | 43.32744 | 11.64987 | 34410 ft | 406 kts | 15° |
| 2026-05-01 09:47 | 43.35456 | 11.66045 | 34773 ft | 405 kts | 15° |
| 2026-05-01 09:47 | 43.38166 | 11.67099 | 35107 ft | 405 kts | 15° |
| 2026-05-01 09:47 | 43.40879 | 11.68149 | 35425 ft | 405 kts | 15° |
| 2026-05-01 09:47 | 43.43591 | 11.69196 | 35760 ft | 405 kts | 15° |
| 2026-05-01 09:48 | 43.46302 | 11.70244 | 36067 ft | 405 kts | 15° |
| 2026-05-01 09:48 | 43.49018 | 11.71294 | 36286 ft | 406 kts | 15° |
| 2026-05-01 09:48 | 43.54508 | 11.73427 | 36349 ft | 413 kts | 15° |
| 2026-05-01 09:49 | 43.60055 | 11.75591 | 36349 ft | 415 kts | 15° |
| 2026-05-01 09:49 | 43.65613 | 11.77758 | 36348 ft | 414 kts | 15° |
| 2026-05-01 09:50 | 43.71160 | 11.79929 | 36350 ft | 414 kts | 15° |
| 2026-05-01 09:50 | 43.76619 | 11.82434 | 36357 ft | 415 kts | 25° |
| 2026-05-01 09:51 | 43.81316 | 11.87092 | 36358 ft | 419 kts | 40° |
| 2026-05-01 09:51 | 43.85639 | 11.92526 | 36372 ft | 420 kts | 40° |
| 2026-05-01 09:52 | 43.89962 | 11.97952 | 36381 ft | 419 kts | 40° |
| 2026-05-01 09:52 | 43.94255 | 12.03355 | 36385 ft | 419 kts | 40° |
| 2026-05-01 09:53 | 43.98574 | 12.08798 | 36388 ft | 419 kts | 40° |
| 2026-05-01 09:53 | 44.02888 | 12.14249 | 36390 ft | 419 kts | 40° |
| 2026-05-01 09:54 | 44.07202 | 12.19709 | 36400 ft | 419 kts | 40° |
| 2026-05-01 09:54 | 44.11516 | 12.25174 | 36408 ft | 419 kts | 40° |
| 2026-05-01 09:55 | 44.15822 | 12.30644 | 36411 ft | 419 kts | 40° |
| 2026-05-01 09:55 | 44.20126 | 12.36134 | 36419 ft | 419 kts | 40° |
| 2026-05-01 09:56 | 44.24426 | 12.41635 | 36424 ft | 419 kts | 40° |
| 2026-05-01 09:56 | 44.28720 | 12.47139 | 36424 ft | 419 kts | 40° |
| 2026-05-01 09:57 | 44.33008 | 12.52638 | 36427 ft | 418 kts | 40° |
| 2026-05-01 09:57 | 44.37293 | 12.58122 | 36425 ft | 417 kts | 40° |
| 2026-05-01 09:58 | 44.41561 | 12.63618 | 36422 ft | 417 kts | 40° |
| 2026-05-01 09:58 | 44.45818 | 12.69127 | 36426 ft | 417 kts | 40° |
| 2026-05-01 09:59 | 44.47946 | 12.71878 | 36642 ft | 416 kts | 40° |
| 2026-05-01 09:59 | 44.50066 | 12.74615 | 37000 ft | 413 kts | 40° |
| 2026-05-01 09:59 | 44.52174 | 12.77340 | 37331 ft | 411 kts | 40° |
| 2026-05-01 09:59 | 44.54240 | 12.80017 | 37396 ft | 409 kts | 40° |
| 2026-05-01 10:00 | 44.58412 | 12.85423 | 37403 ft | 408 kts | 40° |
| 2026-05-01 10:00 | 44.62570 | 12.90840 | 37401 ft | 408 kts | 40° |
| 2026-05-01 10:01 | 44.66730 | 12.96256 | 37393 ft | 407 kts | 40° |
| 2026-05-01 10:01 | 44.70882 | 13.01677 | 37394 ft | 407 kts | 41° |
| 2026-05-01 10:02 | 44.75026 | 13.07100 | 37399 ft | 407 kts | 41° |
| 2026-05-01 10:02 | 44.79168 | 13.12536 | 37399 ft | 407 kts | 41° |
| 2026-05-01 10:03 | 44.83308 | 13.17981 | 37402 ft | 407 kts | 41° |
| 2026-05-01 10:03 | 44.87422 | 13.23405 | 37402 ft | 407 kts | 41° |